sensor_id;sensor_type;location;lat;lon;timestamp;temperature;humidity
25628;DHT22;40915;50.826;4.356;2024-01-07T00:01:58;3.90;99.90
25628;DHT22;40915;50.826;4.356;2024-01-07T00:04:24;3.90;99.90
25628;DHT22;40915;50.826;4.356;2024-01-07T00:06:49;4.00;99.90
25628;DHT22;40915;50.826;4.356;2024-01-07T00:09:16;4.00;99.90
25628;DHT22;40915;50.826;4.356;2024-01-07T00:11:42;3.90;99.90
25628;DHT22;40915;50.826;4.356;2024-01-07T00:14:08;3.90;99.90
25628;DHT22;40915;50.826;4.356;2024-01-07T00:16:33;3.90;99.90
25628;DHT22;40915;50.826;4.356;2024-01-07T00:18:59;3.90;99.90
25628;DHT22;40915;50.826;4.356;2024-01-07T00:21:25;3.90;99.90
25628;DHT22;40915;50.826;4.356;2024-01-07T00:23:51;3.90;99.90
25628;DHT22;40915;50.826;4.356;2024-01-07T00:26:16;3.90;99.90
25628;DHT22;40915;50.826;4.356;2024-01-07T00:28:42;3.90;99.90
25628;DHT22;40915;50.826;4.356;2024-01-07T00:31:07;3.90;99.90
25628;DHT22;40915;50.826;4.356;2024-01-07T00:33:34;3.90;99.90
25628;DHT22;40915;50.826;4.356;2024-01-07T00:36:01;4.00;99.90
25628;DHT22;40915;50.826;4.356;2024-01-07T00:38:27;3.90;99.90
25628;DHT22;40915;50.826;4.356;2024-01-07T00:40:52;4.00;99.90
25628;DHT22;40915;50.826;4.356;2024-01-07T00:43:18;3.90;99.90
25628;DHT22;40915;50.826;4.356;2024-01-07T00:45:44;3.90;99.90
25628;DHT22;40915;50.826;4.356;2024-01-07T00:48:09;3.90;99.90
25628;DHT22;40915;50.826;4.356;2024-01-07T00:50:35;3.80;99.90
25628;DHT22;40915;50.826;4.356;2024-01-07T00:53:01;3.80;99.90
25628;DHT22;40915;50.826;4.356;2024-01-07T00:55:26;3.80;99.90
25628;DHT22;40915;50.826;4.356;2024-01-07T00:57:52;3.80;99.90
25628;DHT22;40915;50.826;4.356;2024-01-07T01:00:18;3.90;99.90
25628;DHT22;40915;50.826;4.356;2024-01-07T01:02:44;3.90;99.90
25628;DHT22;40915;50.826;4.356;2024-01-07T01:05:09;3.90;99.90
25628;DHT22;40915;50.826;4.356;2024-01-07T01:07:35;3.90;99.90
25628;DHT22;40915;50.826;4.356;2024-01-07T01:10:00;3.90;99.90
25628;DHT22;40915;50.826;4.356;2024-01-07T01:12:26;3.90;99.90
25628;DHT22;40915;50.826;4.356;2024-01-07T01:14:52;4.00;99.90
25628;DHT22;40915;50.826;4.356;2024-01-07T01:17:17;4.00;99.90
25628;DHT22;40915;50.826;4.356;2024-01-07T01:19:43;4.00;99.90
25628;DHT22;40915;50.826;4.356;2024-01-07T01:22:08;4.00;99.90
25628;DHT22;40915;50.826;4.356;2024-01-07T01:24:34;4.00;99.90
25628;DHT22;40915;50.826;4.356;2024-01-07T01:27:00;4.00;99.90
25628;DHT22;40915;50.826;4.356;2024-01-07T01:29:25;4.00;99.90
25628;DHT22;40915;50.826;4.356;2024-01-07T01:31:51;3.90;99.90
25628;DHT22;40915;50.826;4.356;2024-01-07T01:34:17;3.90;99.90
25628;DHT22;40915;50.826;4.356;2024-01-07T01:36:42;3.90;99.90
25628;DHT22;40915;50.826;4.356;2024-01-07T01:39:08;3.90;99.90
25628;DHT22;40915;50.826;4.356;2024-01-07T01:41:33;3.90;99.90
25628;DHT22;40915;50.826;4.356;2024-01-07T01:44:00;3.90;99.90
25628;DHT22;40915;50.826;4.356;2024-01-07T01:46:26;3.90;99.90
25628;DHT22;40915;50.826;4.356;2024-01-07T01:48:51;3.90;99.90
25628;DHT22;40915;50.826;4.356;2024-01-07T01:51:18;3.90;99.90
25628;DHT22;40915;50.826;4.356;2024-01-07T01:53:45;3.90;99.90
25628;DHT22;40915;50.826;4.356;2024-01-07T01:56:11;3.90;99.90
25628;DHT22;40915;50.826;4.356;2024-01-07T01:58:36;3.90;99.90
25628;DHT22;40915;50.826;4.356;2024-01-07T02:01:03;3.90;99.90
25628;DHT22;40915;50.826;4.356;2024-01-07T02:03:29;3.90;99.90
25628;DHT22;40915;50.826;4.356;2024-01-07T02:05:56;3.90;99.90
25628;DHT22;40915;50.826;4.356;2024-01-07T02:08:22;3.80;99.90
25628;DHT22;40915;50.826;4.356;2024-01-07T02:10:48;3.80;99.90
25628;DHT22;40915;50.826;4.356;2024-01-07T02:13:14;3.80;99.90
25628;DHT22;40915;50.826;4.356;2024-01-07T02:15:39;3.70;99.90
25628;DHT22;40915;50.826;4.356;2024-01-07T02:18:05;3.70;99.90
25628;DHT22;40915;50.826;4.356;2024-01-07T02:20:31;3.70;99.90
25628;DHT22;40915;50.826;4.356;2024-01-07T02:22:56;3.70;99.90
25628;DHT22;40915;50.826;4.356;2024-01-07T02:25:23;3.60;99.90
25628;DHT22;40915;50.826;4.356;2024-01-07T02:27:49;3.60;99.90
25628;DHT22;40915;50.826;4.356;2024-01-07T02:32:41;3.50;99.90
25628;DHT22;40915;50.826;4.356;2024-01-07T02:35:06;3.60;99.90
25628;DHT22;40915;50.826;4.356;2024-01-07T02:39:58;3.40;99.90
25628;DHT22;40915;50.826;4.356;2024-01-07T02:42:24;3.40;99.90
25628;DHT22;40915;50.826;4.356;2024-01-07T02:44:49;3.50;99.90
25628;DHT22;40915;50.826;4.356;2024-01-07T02:47:15;3.50;99.90
25628;DHT22;40915;50.826;4.356;2024-01-07T02:49:41;3.40;99.90
25628;DHT22;40915;50.826;4.356;2024-01-07T02:52:06;3.30;99.90
25628;DHT22;40915;50.826;4.356;2024-01-07T02:54:32;3.30;99.90
25628;DHT22;40915;50.826;4.356;2024-01-07T02:56:57;3.30;99.90
25628;DHT22;40915;50.826;4.356;2024-01-07T02:59:23;3.20;99.90
25628;DHT22;40915;50.826;4.356;2024-01-07T03:01:48;3.20;99.90
25628;DHT22;40915;50.826;4.356;2024-01-07T03:04:15;3.20;99.90
25628;DHT22;40915;50.826;4.356;2024-01-07T03:06:41;3.20;99.90
25628;DHT22;40915;50.826;4.356;2024-01-07T03:09:07;3.20;99.90
25628;DHT22;40915;50.826;4.356;2024-01-07T03:11:33;3.10;99.90
25628;DHT22;40915;50.826;4.356;2024-01-07T03:13:58;3.10;99.90
25628;DHT22;40915;50.826;4.356;2024-01-07T03:16:25;3.20;99.90
25628;DHT22;40915;50.826;4.356;2024-01-07T03:18:51;3.10;99.90
25628;DHT22;40915;50.826;4.356;2024-01-07T03:21:21;3.20;99.90
25628;DHT22;40915;50.826;4.356;2024-01-07T03:23:48;3.20;99.90
25628;DHT22;40915;50.826;4.356;2024-01-07T03:26:15;3.20;99.90
25628;DHT22;40915;50.826;4.356;2024-01-07T03:28:41;3.10;99.90
25628;DHT22;40915;50.826;4.356;2024-01-07T03:31:18;3.10;99.90
25628;DHT22;40915;50.826;4.356;2024-01-07T03:33:43;3.10;99.90
25628;DHT22;40915;50.826;4.356;2024-01-07T03:36:11;3.20;99.90
25628;DHT22;40915;50.826;4.356;2024-01-07T03:38:37;3.10;99.90
25628;DHT22;40915;50.826;4.356;2024-01-07T03:41:03;3.10;99.90
25628;DHT22;40915;50.826;4.356;2024-01-07T03:43:29;3.10;99.90
25628;DHT22;40915;50.826;4.356;2024-01-07T03:45:55;3.10;99.90
25628;DHT22;40915;50.826;4.356;2024-01-07T03:48:21;3.10;99.90
25628;DHT22;40915;50.826;4.356;2024-01-07T03:50:46;3.10;99.90
25628;DHT22;40915;50.826;4.356;2024-01-07T03:53:13;3.10;99.90
25628;DHT22;40915;50.826;4.356;2024-01-07T03:55:39;3.10;99.90
25628;DHT22;40915;50.826;4.356;2024-01-07T03:58:05;3.10;99.90
25628;DHT22;40915;50.826;4.356;2024-01-07T04:00:34;3.00;99.90
25628;DHT22;40915;50.826;4.356;2024-01-07T04:03:00;3.10;99.90
25628;DHT22;40915;50.826;4.356;2024-01-07T04:05:26;3.10;99.90
25628;DHT22;40915;50.826;4.356;2024-01-07T04:07:52;3.10;99.90
25628;DHT22;40915;50.826;4.356;2024-01-07T04:10:18;3.10;99.90
25628;DHT22;40915;50.826;4.356;2024-01-07T04:12:44;3.10;99.90
25628;DHT22;40915;50.826;4.356;2024-01-07T04:15:10;3.10;99.90
25628;DHT22;40915;50.826;4.356;2024-01-07T04:17:36;3.20;99.90
25628;DHT22;40915;50.826;4.356;2024-01-07T04:20:02;3.10;99.90
25628;DHT22;40915;50.826;4.356;2024-01-07T04:22:27;3.20;99.90
25628;DHT22;40915;50.826;4.356;2024-01-07T04:24:53;3.10;99.90
25628;DHT22;40915;50.826;4.356;2024-01-07T04:27:19;3.10;99.90
25628;DHT22;40915;50.826;4.356;2024-01-07T04:29:44;3.10;99.90
25628;DHT22;40915;50.826;4.356;2024-01-07T04:32:10;3.10;99.90
25628;DHT22;40915;50.826;4.356;2024-01-07T04:34:35;3.10;99.90
25628;DHT22;40915;50.826;4.356;2024-01-07T04:37:01;3.20;99.90
25628;DHT22;40915;50.826;4.356;2024-01-07T04:39:26;3.20;99.90
25628;DHT22;40915;50.826;4.356;2024-01-07T04:41:52;3.20;99.90
25628;DHT22;40915;50.826;4.356;2024-01-07T04:44:18;3.20;99.90
25628;DHT22;40915;50.826;4.356;2024-01-07T04:46:43;3.10;99.90
25628;DHT22;40915;50.826;4.356;2024-01-07T04:49:09;3.00;99.90
25628;DHT22;40915;50.826;4.356;2024-01-07T04:51:35;3.00;99.90
25628;DHT22;40915;50.826;4.356;2024-01-07T04:54:02;2.90;99.90
25628;DHT22;40915;50.826;4.356;2024-01-07T04:56:27;2.90;99.90
25628;DHT22;40915;50.826;4.356;2024-01-07T04:58:53;2.80;99.90
25628;DHT22;40915;50.826;4.356;2024-01-07T05:01:18;2.80;99.90
25628;DHT22;40915;50.826;4.356;2024-01-07T05:03:44;2.80;99.90
25628;DHT22;40915;50.826;4.356;2024-01-07T05:06:10;2.80;99.90
25628;DHT22;40915;50.826;4.356;2024-01-07T05:08:36;2.80;99.90
25628;DHT22;40915;50.826;4.356;2024-01-07T18:58:12;1.30;99.90
25628;DHT22;40915;50.826;4.356;2024-01-07T19:00:38;1.00;99.90
25628;DHT22;40915;50.826;4.356;2024-01-07T19:03:04;0.90;99.90
25628;DHT22;40915;50.826;4.356;2024-01-07T19:05:30;0.90;99.90
25628;DHT22;40915;50.826;4.356;2024-01-07T19:07:56;0.90;99.90
25628;DHT22;40915;50.826;4.356;2024-01-07T19:10:23;0.80;99.90
25628;DHT22;40915;50.826;4.356;2024-01-07T19:12:48;0.80;99.90
25628;DHT22;40915;50.826;4.356;2024-01-07T19:15:14;0.80;99.90
25628;DHT22;40915;50.826;4.356;2024-01-07T19:17:41;0.80;99.90
25628;DHT22;40915;50.826;4.356;2024-01-07T19:20:07;0.80;99.90
25628;DHT22;40915;50.826;4.356;2024-01-07T19:22:33;0.80;99.90
25628;DHT22;40915;50.826;4.356;2024-01-07T19:25:00;0.80;99.90
25628;DHT22;40915;50.826;4.356;2024-01-07T19:27:26;0.80;99.90
25628;DHT22;40915;50.826;4.356;2024-01-07T19:29:51;0.70;99.90
25628;DHT22;40915;50.826;4.356;2024-01-07T19:32:18;0.80;99.90
25628;DHT22;40915;50.826;4.356;2024-01-07T19:34:44;0.80;99.90
25628;DHT22;40915;50.826;4.356;2024-01-07T19:37:11;0.70;99.90
25628;DHT22;40915;50.826;4.356;2024-01-07T19:39:40;0.70;99.90
25628;DHT22;40915;50.826;4.356;2024-01-07T19:42:05;0.70;99.90
25628;DHT22;40915;50.826;4.356;2024-01-07T19:44:32;0.70;99.90
25628;DHT22;40915;50.826;4.356;2024-01-07T19:46:58;0.60;99.90
25628;DHT22;40915;50.826;4.356;2024-01-07T19:49:24;0.60;99.90
25628;DHT22;40915;50.826;4.356;2024-01-07T19:51:50;0.50;99.90
25628;DHT22;40915;50.826;4.356;2024-01-07T19:54:16;0.50;99.90
25628;DHT22;40915;50.826;4.356;2024-01-07T19:56:44;0.40;99.90
25628;DHT22;40915;50.826;4.356;2024-01-07T19:59:10;0.40;99.90
25628;DHT22;40915;50.826;4.356;2024-01-07T20:01:35;0.40;99.90
25628;DHT22;40915;50.826;4.356;2024-01-07T20:04:01;0.40;99.90
25628;DHT22;40915;50.826;4.356;2024-01-07T20:06:27;0.40;99.90
25628;DHT22;40915;50.826;4.356;2024-01-07T20:08:55;0.40;99.90
25628;DHT22;40915;50.826;4.356;2024-01-07T20:11:23;0.30;99.90
25628;DHT22;40915;50.826;4.356;2024-01-07T20:13:50;0.30;99.90
25628;DHT22;40915;50.826;4.356;2024-01-07T20:16:17;0.20;99.90
25628;DHT22;40915;50.826;4.356;2024-01-07T20:18:43;0.30;99.90
25628;DHT22;40915;50.826;4.356;2024-01-07T20:21:26;0.20;99.90
25628;DHT22;40915;50.826;4.356;2024-01-07T20:23:53;0.30;99.90
25628;DHT22;40915;50.826;4.356;2024-01-07T20:26:22;0.40;99.90
25628;DHT22;40915;50.826;4.356;2024-01-07T20:28:48;0.30;99.90
25628;DHT22;40915;50.826;4.356;2024-01-07T20:31:19;0.30;99.90
25628;DHT22;40915;50.826;4.356;2024-01-07T20:33:44;0.30;99.90
25628;DHT22;40915;50.826;4.356;2024-01-07T20:36:10;0.40;99.90
25628;DHT22;40915;50.826;4.356;2024-01-07T20:38:38;0.30;99.90
25628;DHT22;40915;50.826;4.356;2024-01-07T20:41:05;0.30;99.90
25628;DHT22;40915;50.826;4.356;2024-01-07T20:43:32;0.30;99.90
25628;DHT22;40915;50.826;4.356;2024-01-07T20:45:57;0.20;99.90
25628;DHT22;40915;50.826;4.356;2024-01-07T20:48:24;0.30;99.90
25628;DHT22;40915;50.826;4.356;2024-01-07T20:50:51;0.20;99.90
25628;DHT22;40915;50.826;4.356;2024-01-07T20:53:17;0.20;99.90
25628;DHT22;40915;50.826;4.356;2024-01-07T20:55:45;0.10;99.90
25628;DHT22;40915;50.826;4.356;2024-01-07T20:58:11;0.10;99.90
25628;DHT22;40915;50.826;4.356;2024-01-07T21:00:38;0.10;99.90
25628;DHT22;40915;50.826;4.356;2024-01-07T21:03:04;0.10;99.90
25628;DHT22;40915;50.826;4.356;2024-01-07T21:05:30;0.10;99.90
25628;DHT22;40915;50.826;4.356;2024-01-07T21:07:55;0.10;99.90
25628;DHT22;40915;50.826;4.356;2024-01-07T21:10:21;0.10;99.90
25628;DHT22;40915;50.826;4.356;2024-01-07T21:12:46;0.10;99.90
25628;DHT22;40915;50.826;4.356;2024-01-07T21:15:12;0.10;99.90
25628;DHT22;40915;50.826;4.356;2024-01-07T21:17:39;0.00;99.90
25628;DHT22;40915;50.826;4.356;2024-01-07T21:20:07;0.00;99.90
25628;DHT22;40915;50.826;4.356;2024-01-07T21:22:34;0.00;99.90
25628;DHT22;40915;50.826;4.356;2024-01-07T21:25:00;0.00;99.90
25628;DHT22;40915;50.826;4.356;2024-01-07T21:27:27;0.00;99.90
25628;DHT22;40915;50.826;4.356;2024-01-07T21:29:53;-0.10;99.90
25628;DHT22;40915;50.826;4.356;2024-01-07T21:32:19;-0.10;99.90
25628;DHT22;40915;50.826;4.356;2024-01-07T21:34:44;-0.10;99.90
25628;DHT22;40915;50.826;4.356;2024-01-07T21:37:10;-0.10;99.90
25628;DHT22;40915;50.826;4.356;2024-01-07T21:39:35;-0.10;99.90
25628;DHT22;40915;50.826;4.356;2024-01-07T21:42:08;-0.10;99.90
25628;DHT22;40915;50.826;4.356;2024-01-07T21:44:34;-0.10;99.90
25628;DHT22;40915;50.826;4.356;2024-01-07T21:47:01;-0.10;99.90
25628;DHT22;40915;50.826;4.356;2024-01-07T21:49:27;-0.10;99.90
25628;DHT22;40915;50.826;4.356;2024-01-07T21:51:53;-0.20;99.90
25628;DHT22;40915;50.826;4.356;2024-01-07T21:54:19;-0.20;99.90
25628;DHT22;40915;50.826;4.356;2024-01-07T21:56:44;-0.20;99.90
25628;DHT22;40915;50.826;4.356;2024-01-07T21:59:12;-0.20;99.90
25628;DHT22;40915;50.826;4.356;2024-01-07T22:01:37;-0.20;99.90
25628;DHT22;40915;50.826;4.356;2024-01-07T22:04:04;-0.20;99.90
25628;DHT22;40915;50.826;4.356;2024-01-07T22:06:30;-0.30;99.90
25628;DHT22;40915;50.826;4.356;2024-01-07T22:08:56;-0.30;99.90
25628;DHT22;40915;50.826;4.356;2024-01-07T22:11:22;-0.30;99.90
25628;DHT22;40915;50.826;4.356;2024-01-07T22:13:49;-0.30;99.90
25628;DHT22;40915;50.826;4.356;2024-01-07T22:16:15;-0.30;99.90
25628;DHT22;40915;50.826;4.356;2024-01-07T22:18:40;-0.40;99.90
25628;DHT22;40915;50.826;4.356;2024-01-07T22:21:14;-0.30;99.90
25628;DHT22;40915;50.826;4.356;2024-01-07T22:23:41;-0.40;99.90
25628;DHT22;40915;50.826;4.356;2024-01-07T22:26:06;-0.40;99.90
25628;DHT22;40915;50.826;4.356;2024-01-07T22:28:32;-0.40;99.90
25628;DHT22;40915;50.826;4.356;2024-01-07T22:30:58;-0.40;99.90
25628;DHT22;40915;50.826;4.356;2024-01-07T22:33:23;-0.40;99.90
25628;DHT22;40915;50.826;4.356;2024-01-07T22:35:49;-0.40;99.90
25628;DHT22;40915;50.826;4.356;2024-01-07T22:38:15;-0.50;99.90
25628;DHT22;40915;50.826;4.356;2024-01-07T22:40:41;-0.50;99.90
25628;DHT22;40915;50.826;4.356;2024-01-07T22:43:08;-0.50;99.90
25628;DHT22;40915;50.826;4.356;2024-01-07T22:45:34;-0.50;99.90
25628;DHT22;40915;50.826;4.356;2024-01-07T22:48:00;-0.50;99.90
25628;DHT22;40915;50.826;4.356;2024-01-07T22:50:25;-0.50;99.90
25628;DHT22;40915;50.826;4.356;2024-01-07T22:52:51;-0.60;99.90
25628;DHT22;40915;50.826;4.356;2024-01-07T22:55:17;-0.60;99.90
25628;DHT22;40915;50.826;4.356;2024-01-07T22:57:42;-0.60;99.90
25628;DHT22;40915;50.826;4.356;2024-01-07T23:00:08;-0.60;99.90
25628;DHT22;40915;50.826;4.356;2024-01-07T23:02:40;-0.60;99.90
25628;DHT22;40915;50.826;4.356;2024-01-07T23:05:07;-0.60;99.90
25628;DHT22;40915;50.826;4.356;2024-01-07T23:07:35;-0.70;99.90
25628;DHT22;40915;50.826;4.356;2024-01-07T23:10:01;-0.60;99.90
25628;DHT22;40915;50.826;4.356;2024-01-07T23:12:26;-0.70;99.90
25628;DHT22;40915;50.826;4.356;2024-01-07T23:14:53;-0.60;99.90
25628;DHT22;40915;50.826;4.356;2024-01-07T23:17:18;-0.60;99.90
25628;DHT22;40915;50.826;4.356;2024-01-07T23:19:47;-0.70;99.90
25628;DHT22;40915;50.826;4.356;2024-01-07T23:22:12;-0.60;99.90
25628;DHT22;40915;50.826;4.356;2024-01-07T23:24:39;-0.60;99.90
25628;DHT22;40915;50.826;4.356;2024-01-07T23:27:06;-0.60;99.90
25628;DHT22;40915;50.826;4.356;2024-01-07T23:29:31;-0.70;99.90
25628;DHT22;40915;50.826;4.356;2024-01-07T23:31:57;-0.70;99.90
25628;DHT22;40915;50.826;4.356;2024-01-07T23:34:23;-0.70;99.90
25628;DHT22;40915;50.826;4.356;2024-01-07T23:36:48;-0.70;99.90
25628;DHT22;40915;50.826;4.356;2024-01-07T23:39:14;-0.70;99.90
25628;DHT22;40915;50.826;4.356;2024-01-07T23:41:39;-0.70;99.90
25628;DHT22;40915;50.826;4.356;2024-01-07T23:44:05;-0.70;99.90
25628;DHT22;40915;50.826;4.356;2024-01-07T23:46:31;-0.60;99.90
25628;DHT22;40915;50.826;4.356;2024-01-07T23:48:57;-0.60;99.90
25628;DHT22;40915;50.826;4.356;2024-01-07T23:51:23;-0.60;99.90
25628;DHT22;40915;50.826;4.356;2024-01-07T23:53:49;-0.60;99.90
25628;DHT22;40915;50.826;4.356;2024-01-07T23:56:14;-0.60;99.90
25628;DHT22;40915;50.826;4.356;2024-01-07T23:58:40;-0.70;99.90
